Time;durP1;ratioP1;P1;durP2;ratioP2;P2;SDS_P1;SDS_P2;PMS_P1;PMS_P2;Temp;Humidity;BMP_temperature;BMP_pressure;BME280_temperature;BME280_humidity;BME280_pressure;Samples;Min_cycle;Max_cycle;Signal;HPM_P1;HPM_P2
2022/11/07 00:00:27;;;;;;;21.60;7.70;;;;;;;11.09;79.30;101650.77;107495;1268;63395;-73
2022/11/07 00:02:59;;;;;;;12.30;7.60;;;;;;;11.11;79.30;101653.61;107497;1263;57689;-73
2022/11/07 00:05:28;;;;;;;13.10;7.40;;;;;;;11.10;79.24;101650.23;107642;1258;63006;-72
2022/11/07 00:07:56;;;;;;;12.80;7.00;;;;;;;11.07;79.58;101653.15;107755;1258;71638;-72
2022/11/07 00:10:25;;;;;;;13.00;7.20;;;;;;;11.07;79.46;101653.87;107517;1263;59700;-73
2022/11/07 00:12:54;;;;;;;12.20;7.00;;;;;;;11.05;79.35;101651.02;107624;1263;62479;-74
2022/11/07 00:15:22;;;;;;;16.60;7.50;;;;;;;11.04;79.42;101651.27;107524;1263;62200;-74
2022/11/07 00:17:51;;;;;;;12.00;7.10;;;;;;;10.97;79.51;101648.70;107529;1263;57182;-74
2022/11/07 00:20:20;;;;;;;11.30;7.70;;;;;;;10.95;79.69;101652.33;107634;1270;72700;-74
2022/11/07 00:22:48;;;;;;;14.50;7.70;;;;;;;10.89;79.86;101657.53;107759;1273;63140;-74
2022/11/07 00:25:17;;;;;;;14.20;7.30;;;;;;;10.86;80.01;101657.52;107584;1267;59820;-74
2022/11/07 00:27:46;;;;;;;12.00;7.00;;;;;;;10.89;79.89;101657.72;107558;1270;73712;-74
2022/11/07 00:30:14;;;;;;;14.90;7.70;;;;;;;10.87;79.91;101657.44;107495;1267;63149;-73
2022/11/07 00:32:43;;;;;;;13.20;7.30;;;;;;;10.88;79.73;101653.59;107630;1266;57694;-72
2022/11/07 00:35:12;;;;;;;11.90;7.20;;;;;;;10.85;79.89;101655.50;107606;1266;73416;-72
2022/11/07 00:37:40;;;;;;;12.60;7.20;;;;;;;10.81;80.16;101660.11;107664;1268;71451;-71
2022/11/07 00:40:10;;;;;;;13.00;7.30;;;;;;;10.83;79.91;101662.06;107503;1266;68670;-73
2022/11/07 00:42:38;;;;;;;14.70;7.20;;;;;;;10.87;79.64;101662.50;107392;1258;63271;-71
2022/11/07 00:45:08;;;;;;;14.10;7.10;;;;;;;10.83;79.82;101661.70;107516;1262;57366;-72
2022/11/07 00:47:36;;;;;;;13.10;7.40;;;;;;;10.84;79.72;101659.72;107475;1273;57128;-72
2022/11/07 00:50:06;;;;;;;12.40;6.90;;;;;;;10.76;79.82;101661.45;107450;1262;71701;-72
2022/11/07 00:52:35;;;;;;;13.50;7.40;;;;;;;10.75;79.91;101659.73;107633;1254;61576;-74
2022/11/07 00:55:04;;;;;;;10.30;7.20;;;;;;;10.78;79.93;101655.90;107408;1264;69691;-73
2022/11/07 00:57:33;;;;;;;13.50;7.60;;;;;;;10.73;80.00;101658.30;107440;1267;63510;-73
2022/11/07 01:00:03;;;;;;;12.20;7.00;;;;;;;10.69;80.18;101659.05;107463;1272;62784;-73
2022/11/07 01:02:31;;;;;;;13.40;7.40;;;;;;;10.68;80.18;101658.42;107424;1263;61378;-73
2022/11/07 01:05:09;;;;;;;10.40;6.60;;;;;;;10.69;80.06;101656.25;107470;1261;72171;-73
2022/11/07 01:07:39;;;;;;;14.10;8.30;;;;;;;10.68;79.92;101656.67;107636;1258;70811;-73
2022/11/07 01:10:08;;;;;;;11.00;7.00;;;;;;;10.63;79.97;101655.73;107615;1263;59265;-72
2022/11/07 01:12:37;;;;;;;17.60;7.70;;;;;;;10.61;79.96;101651.33;107593;1263;73823;-72
2022/11/07 01:15:06;;;;;;;12.00;7.30;;;;;;;10.64;79.82;101651.16;107590;1270;57657;-72
2022/11/07 01:17:34;;;;;;;14.30;7.70;;;;;;;10.61;80.08;101644.55;107586;1263;61579;-72
2022/11/07 01:20:04;;;;;;;13.50;7.50;;;;;;;10.58;80.03;101643.65;107598;1270;62462;-74
2022/11/07 01:22:33;;;;;;;11.70;7.10;;;;;;;10.59;80.05;101641.86;107748;1259;70796;-73
2022/11/07 01:25:01;;;;;;;10.80;6.90;;;;;;;10.54;79.92;101641.60;107601;1261;70725;-74
2022/11/07 01:27:30;;;;;;;12.60;7.30;;;;;;;10.54;79.98;101644.73;107627;1261;63234;-73
2022/11/07 01:29:59;;;;;;;11.30;6.50;;;;;;;10.51;79.90;101643.35;107614;1265;61958;-71
2022/11/07 01:32:27;;;;;;;12.10;7.60;;;;;;;10.45;80.10;101645.10;107513;1267;59810;-74
2022/11/07 01:34:56;;;;;;;11.40;6.80;;;;;;;10.43;80.32;101643.48;107602;1266;63332;-74
2022/11/07 01:37:24;;;;;;;17.60;7.40;;;;;;;10.46;80.12;101638.58;107723;1261;71818;-73
2022/11/07 01:39:53;;;;;;;12.20;7.20;;;;;;;10.45;80.18;101639.01;107543;1266;60075;-73
2022/11/07 01:42:22;;;;;;;10.30;6.40;;;;;;;10.44;80.10;101635.42;107539;1273;62267;-73
2022/11/07 01:44:57;;;;;;;11.30;7.20;;;;;;;10.43;79.69;101633.75;107469;1258;57622;-72
2022/11/07 01:47:32;;;;;;;11.10;6.90;;;;;;;10.36;80.27;101633.45;107423;1273;60845;-70
2022/11/07 01:50:02;;;;;;;13.20;6.80;;;;;;;10.29;80.36;101635.02;107493;1273;72704;-76
2022/11/07 01:52:36;;;;;;;13.90;6.60;;;;;;;10.27;80.20;101619.14;107429;1270;72966;-75
2022/11/07 01:55:25;;;;;;;12.10;7.10;;;;;;;10.34;80.09;101626.77;107480;1273;60260;-74
2022/11/07 01:58:02;;;;;;;12.90;7.10;;;;;;;10.33;80.04;101632.02;107457;1266;63294;-74
2022/11/07 02:00:32;;;;;;;11.80;6.60;;;;;;;10.29;80.11;101630.66;107556;1263;58121;-75
2022/11/07 02:03:16;;;;;;;11.00;6.40;;;;;;;10.29;80.11;101628.97;107599;1273;57170;-75
2022/11/07 02:05:59;;;;;;;14.00;6.60;;;;;;;10.31;79.95;101625.86;107653;1266;62184;-74
2022/11/07 02:08:33;;;;;;;11.70;7.40;;;;;;;10.33;79.60;101624.54;107696;1264;61538;-75
2022/11/07 02:11:03;;;;;;;13.80;7.40;;;;;;;10.30;79.66;101624.67;107620;1258;60225;-73
2022/11/07 02:13:32;;;;;;;13.70;7.40;;;;;;;10.33;79.57;101627.13;107658;1266;72951;-74
2022/11/07 02:16:03;;;;;;;11.50;7.30;;;;;;;10.32;79.56;101628.24;107614;1263;62434;-74
2022/11/07 02:18:35;;;;;;;12.20;6.80;;;;;;;10.23;79.40;101627.88;107591;1259;61520;-74
2022/11/07 02:21:35;;;;;;;11.50;7.30;;;;;;;10.20;79.57;101628.56;107496;1261;73318;-74
2022/11/07 02:24:06;;;;;;;12.50;7.20;;;;;;;10.17;79.53;101629.25;107732;1264;72147;-74
2022/11/07 02:26:37;;;;;;;11.90;7.10;;;;;;;10.13;79.85;101629.64;107677;1259;60314;-75
2022/11/07 02:29:09;;;;;;;11.10;6.60;;;;;;;10.13;79.70;101630.02;107595;1270;73040;-75
2022/11/07 02:31:37;;;;;;;11.60;7.00;;;;;;;10.11;79.64;101629.59;107594;1263;62537;-75
2022/11/07 02:34:06;;;;;;;14.60;6.80;;;;;;;10.08;79.71;101631.12;107575;1274;57691;-75
2022/11/07 02:36:35;;;;;;;11.70;7.20;;;;;;;10.08;79.83;101631.30;107601;1266;73649;-74
2022/11/07 02:39:03;;;;;;;11.60;8.30;;;;;;;10.06;79.49;101627.07;107764;1267;72433;-74
2022/11/07 02:41:34;;;;;;;13.80;7.30;;;;;;;10.04;79.75;101626.68;107550;1262;60416;-74
2022/11/07 02:44:10;;;;;;;15.30;7.30;;;;;;;9.99;79.80;101631.80;107537;1263;72972;-75
2022/11/07 02:46:39;;;;;;;11.20;7.30;;;;;;;9.96;79.73;101634.06;107493;1260;61841;-74
2022/11/07 02:49:08;;;;;;;12.80;7.00;;;;;;;9.94;79.94;101632.78;107522;1269;57663;-75
2022/11/07 02:51:37;;;;;;;14.00;7.40;;;;;;;9.96;79.69;101635.77;107611;1266;62865;-75
2022/11/07 02:54:05;;;;;;;12.80;7.20;;;;;;;9.93;79.99;101638.96;107642;1265;72091;-74
2022/11/07 02:56:34;;;;;;;11.70;7.20;;;;;;;9.92;80.03;101643.67;107572;1259;59637;-76
2022/11/07 02:59:03;;;;;;;10.60;7.00;;;;;;;9.97;79.71;101642.39;107549;1273;72961;-72
2022/11/07 03:01:31;;;;;;;12.70;7.20;;;;;;;9.99;79.35;101646.77;107561;1262;62416;-72
2022/11/07 03:04:00;;;;;;;13.50;7.60;;;;;;;9.97;79.55;101647.23;107563;1267;57686;-72
2022/11/07 03:06:29;;;;;;;15.60;7.30;;;;;;;9.94;79.64;101649.30;107586;1263;72727;-73
2022/11/07 03:08:57;;;;;;;14.20;7.40;;;;;;;9.93;79.65;101649.21;107654;1256;72455;-72
2022/11/07 03:11:26;;;;;;;12.80;6.90;;;;;;;9.91;79.72;101651.78;107560;1264;68798;-72
2022/11/07 03:13:55;;;;;;;10.70;7.10;;;;;;;9.90;79.84;101654.27;107522;1263;73767;-72
2022/11/07 03:16:24;;;;;;;15.20;7.80;;;;;;;9.86;79.87;101651.32;107494;1272;61969;-70
2022/11/07 03:18:52;;;;;;;11.00;7.60;;;;;;;9.88;79.56;101648.59;107512;1269;60132;-72
2022/11/07 03:21:21;;;;;;;13.90;7.10;;;;;;;9.86;79.86;101651.49;107517;1266;73293;-72
2022/11/07 03:23:50;;;;;;;13.60;7.50;;;;;;;9.81;80.02;101651.39;107669;1268;61827;-73
2022/11/07 03:29:25;;;;;;;10.60;7.30;;;;;;;9.76;80.12;101646.98;107344;1267;72928;-73
2022/11/07 03:31:53;;;;;;;13.10;7.00;;;;;;;9.68;80.31;101646.21;107530;1262;57312;-74
2022/11/07 03:34:22;;;;;;;16.80;7.60;;;;;;;9.64;80.32;101645.91;107554;1263;60451;-73
2022/11/07 03:36:50;;;;;;;11.00;7.50;;;;;;;9.63;80.34;101647.15;107497;1263;73929;-72
2022/11/07 03:39:19;;;;;;;13.00;7.90;;;;;;;9.64;80.37;101648.00;107651;1264;61254;-72
2022/11/07 03:41:53;;;;;;;19.10;7.10;;;;;;;9.58;80.33;101649.02;107536;1264;59230;-73
2022/11/07 03:44:21;;;;;;;14.40;7.60;;;;;;;9.55;80.19;101648.64;107571;1262;73832;-72
2022/11/07 03:46:50;;;;;;;14.00;7.40;;;;;;;9.49;80.39;101650.54;107689;1264;57650;-73
2022/11/07 03:49:19;;;;;;;14.50;8.00;;;;;;;9.45;80.38;101647.45;107587;1266;60495;-73
2022/11/07 03:51:47;;;;;;;12.40;7.50;;;;;;;9.43;80.37;101649.11;107593;1254;72581;-73
2022/11/07 03:54:16;;;;;;;17.70;8.20;;;;;;;9.41;80.21;101647.83;107717;1264;60665;-73
2022/11/07 03:56:44;;;;;;;14.50;7.40;;;;;;;9.30;80.65;101651.17;107604;1262;60754;-72
2022/11/07 03:59:13;;;;;;;14.50;8.50;;;;;;;9.30;80.75;101649.97;107558;1273;62923;-72
2022/11/07 04:01:43;;;;;;;13.00;8.20;;;;;;;9.26;80.88;101647.58;107550;1267;62408;-73
2022/11/07 04:04:12;;;;;;;14.40;8.50;;;;;;;9.20;81.14;101641.58;107584;1263;62145;-72
2022/11/07 04:06:41;;;;;;;11.40;7.80;;;;;;;9.22;80.82;101638.70;107569;1263;73987;-72
2022/11/07 04:09:09;;;;;;;14.70;8.50;;;;;;;9.17;81.11;101635.67;107680;1264;61274;-69
2022/11/07 04:17:43;;;;;;;13.10;8.50;;;;;;;9.11;81.41;101635.31;107676;1258;57647;-74
2022/11/07 04:20:12;;;;;;;15.70;8.80;;;;;;;9.11;81.20;101636.19;107697;1259;61509;-75
2022/11/07 04:22:40;;;;;;;15.30;9.30;;;;;;;9.07;81.51;101633.27;107495;1270;63923;-74
2022/11/07 04:25:09;;;;;;;12.60;8.50;;;;;;;9.06;81.55;101630.70;107784;1266;60673;-73
2022/11/07 04:27:45;;;;;;;13.70;8.80;;;;;;;9.09;81.52;101626.22;107664;1264;69653;-72
2022/11/07 04:30:17;;;;;;;15.50;8.50;;;;;;;9.09;81.67;101628.30;107652;1266;62985;-74
2022/11/07 04:32:50;;;;;;;14.20;9.10;;;;;;;9.08;81.44;101629.35;107636;1257;62908;-73
2022/11/07 04:35:21;;;;;;;15.30;9.20;;;;;;;9.10;81.47;101624.92;107737;1258;57636;-74
2022/11/07 04:37:49;;;;;;;14.90;9.90;;;;;;;9.13;81.33;101626.52;107485;1261;73469;-72
2022/11/07 04:40:19;;;;;;;14.10;8.70;;;;;;;9.18;81.14;101625.04;107602;1268;62047;-73
2022/11/07 04:42:48;;;;;;;16.30;8.90;;;;;;;9.15;81.21;101623.11;107443;1264;60028;-72
2022/11/07 04:45:17;;;;;;;14.30;8.80;;;;;;;9.14;81.22;101621.09;107318;1273;63076;-74
2022/11/07 04:47:46;;;;;;;15.80;9.80;;;;;;;9.14;81.22;101629.77;107549;1263;57681;-74
2022/11/07 04:50:18;;;;;;;16.70;9.40;;;;;;;9.15;81.03;101631.76;107559;1264;57735;-76
2022/11/07 04:52:47;;;;;;;15.40;9.30;;;;;;;9.18;81.13;101635.11;107448;1261;73475;-78
2022/11/07 04:55:23;;;;;;;14.00;9.40;;;;;;;9.19;80.99;101639.08;107737;1270;72516;-76
2022/11/07 04:57:52;;;;;;;18.70;9.60;;;;;;;9.22;80.75;101640.45;107612;1261;59583;-77
2022/11/07 05:00:22;;;;;;;17.50;9.80;;;;;;;9.16;80.87;101638.33;107489;1272;63240;-74
2022/11/07 05:02:51;;;;;;;18.30;10.00;;;;;;;9.14;80.86;101640.36;107438;1261;62751;-73
2022/11/07 05:05:20;;;;;;;19.60;10.20;;;;;;;9.13;80.78;101644.05;107426;1267;61819;-73
2022/11/07 05:07:48;;;;;;;17.00;9.50;;;;;;;9.13;81.04;101645.98;107408;1265;72533;-73
2022/11/07 05:10:26;;;;;;;14.90;8.80;;;;;;;9.13;80.70;101646.52;107755;1258;62206;-73
2022/11/07 05:12:55;;;;;;;18.40;10.10;;;;;;;9.14;80.68;101649.42;107623;1272;59810;-76
2022/11/07 05:15:24;;;;;;;18.50;10.00;;;;;;;9.18;80.70;101651.41;107509;1268;73012;-75
2022/11/07 05:17:52;;;;;;;16.70;10.20;;;;;;;9.13;80.37;101651.86;107632;1270;62951;-75
2022/11/07 05:20:36;;;;;;;15.90;9.70;;;;;;;9.09;80.62;101652.95;107672;1266;57089;-71
2022/11/07 05:23:11;;;;;;;15.50;9.80;;;;;;;9.05;80.63;101652.27;107593;1265;62874;-71
2022/11/07 05:25:48;;;;;;;15.80;10.30;;;;;;;9.01;80.92;101653.70;107469;1256;72241;-71
2022/11/07 05:28:22;;;;;;;18.20;10.30;;;;;;;8.95;81.03;101653.48;107474;1265;70143;-72
2022/11/07 05:31:05;;;;;;;17.30;10.20;;;;;;;8.87;81.49;101657.38;107404;1267;63599;-71
2022/11/07 05:33:35;;;;;;;16.00;10.00;;;;;;;8.90;81.81;101660.16;107389;1264;57675;-72
2022/11/07 05:36:19;;;;;;;15.50;9.50;;;;;;;8.96;81.28;101660.91;107401;1266;57112;-71
2022/11/07 05:38:51;;;;;;;17.40;10.40;;;;;;;8.98;80.81;101664.10;107566;1273;62108;-71
2022/11/07 05:41:21;;;;;;;18.10;10.10;;;;;;;8.97;81.33;101669.55;107562;1272;72111;-71
2022/11/07 05:43:49;;;;;;;14.30;9.40;;;;;;;8.98;81.25;101671.08;107568;1272;69877;-71
2022/11/07 05:46:18;;;;;;;18.00;10.10;;;;;;;9.05;81.48;101677.52;107585;1262;62483;-71
2022/11/07 05:48:47;;;;;;;18.30;10.50;;;;;;;9.13;81.50;101677.96;107671;1263;61663;-72
2022/11/07 05:51:15;;;;;;;17.50;10.20;;;;;;;9.15;80.37;101686.70;107647;1266;60898;-73
2022/11/07 05:53:44;;;;;;;17.60;10.30;;;;;;;9.15;80.06;101690.35;107639;1267;63611;-71
2022/11/07 05:56:13;;;;;;;15.40;9.80;;;;;;;9.15;79.63;101695.06;107783;1259;70827;-72
2022/11/07 05:58:41;;;;;;;17.90;10.60;;;;;;;9.18;79.60;101695.77;107598;1267;69951;-72
2022/11/07 06:01:10;;;;;;;24.40;10.90;;;;;;;9.23;79.00;101694.98;107510;1266;63771;-72
2022/11/07 06:03:38;;;;;;;21.60;10.60;;;;;;;9.26;78.93;101695.19;107627;1261;61962;-71
2022/11/07 06:06:07;;;;;;;21.60;11.20;;;;;;;9.23;78.78;101695.48;107612;1267;57679;-71
2022/11/07 06:08:36;;;;;;;16.90;9.60;;;;;;;9.18;78.68;101693.86;107673;1266;73517;-71
2022/11/07 06:11:05;;;;;;;16.00;9.80;;;;;;;9.14;78.43;101698.04;107794;1263;63176;-71
2022/11/07 06:13:33;;;;;;;20.80;11.30;;;;;;;9.17;78.37;101702.75;107661;1263;69638;-71
2022/11/07 06:16:02;;;;;;;17.70;10.00;;;;;;;9.10;78.40;101706.25;107655;1265;63640;-72
2022/11/07 06:18:31;;;;;;;19.00;10.70;;;;;;;9.12;78.10;101706.71;107596;1259;57066;-72
2022/11/07 06:21:06;;;;;;;20.90;11.10;;;;;;;9.16;77.87;101710.09;107590;1267;60322;-72
2022/11/07 06:23:34;;;;;;;18.80;11.10;;;;;;;9.10;77.98;101708.34;107624;1262;63337;-72
2022/11/07 06:26:03;;;;;;;19.70;11.60;;;;;;;9.09;77.86;101709.23;107798;1261;60556;-73
2022/11/07 06:28:31;;;;;;;25.10;11.90;;;;;;;9.14;77.43;101708.66;107579;1272;70063;-73
2022/11/07 06:31:02;;;;;;;17.80;11.50;;;;;;;8.96;77.58;101704.89;107671;1262;63105;-72
2022/11/07 06:33:31;;;;;;;18.50;11.00;;;;;;;8.90;77.94;101705.35;107579;1263;57746;-72
2022/11/07 06:36:11;;;;;;;20.40;11.30;;;;;;;8.96;77.47;101697.23;107622;1263;61107;-73
2022/11/07 06:38:39;;;;;;;21.40;11.80;;;;;;;8.97;77.50;101704.83;107617;1272;73849;-71
2022/11/07 06:41:12;;;;;;;21.80;12.10;;;;;;;8.92;77.78;101703.70;107692;1268;60543;-72
2022/11/07 06:43:41;;;;;;;19.70;11.30;;;;;;;8.94;77.67;101700.80;107531;1263;68985;-73
2022/11/07 06:46:12;;;;;;;18.50;11.10;;;;;;;8.97;77.32;101701.88;107405;1266;74232;-74
2022/11/07 06:48:41;;;;;;;21.00;11.40;;;;;;;8.94;77.51;101702.03;107384;1266;57129;-72
2022/11/07 06:51:10;;;;;;;22.20;12.70;;;;;;;9.08;77.31;101699.08;107602;1268;60146;-72
2022/11/07 06:53:39;;;;;;;20.40;11.80;;;;;;;9.11;77.08;101697.84;107444;1273;62033;-72
2022/11/07 06:56:13;;;;;;;20.80;11.70;;;;;;;9.17;76.73;101701.74;107717;1261;71293;-71
2022/11/07 06:58:42;;;;;;;25.40;13.70;;;;;;;9.21;76.47;101699.81;107591;1264;69647;-71
2022/11/07 07:01:14;;;;;;;24.30;13.00;;;;;;;9.33;76.18;101698.13;107650;1262;62764;-73
2022/11/07 07:03:43;;;;;;;27.70;15.20;;;;;;;9.51;75.71;101695.98;107591;1259;57474;-74
2022/11/07 07:06:15;;;;;;;24.30;14.00;;;;;;;9.60;75.05;101694.64;107664;1261;60378;-74
2022/11/07 07:08:45;;;;;;;20.30;12.20;;;;;;;9.71;74.72;101697.89;107600;1259;73982;-74
2022/11/07 07:11:15;;;;;;;25.70;12.60;;;;;;;9.61;74.37;101696.84;107516;1266;63079;-73
2022/11/07 07:13:44;;;;;;;28.50;16.10;;;;;;;9.63;74.50;101695.70;107605;1261;69576;-74
2022/11/07 07:16:12;;;;;;;25.90;15.40;;;;;;;9.66;74.32;101696.58;107565;1270;63636;-74
2022/11/07 07:18:41;;;;;;;22.40;13.60;;;;;;;9.70;74.37;101697.60;107617;1266;57585;-74
2022/11/07 07:21:12;;;;;;;22.40;13.50;;;;;;;9.80;73.68;101698.94;107517;1264;60987;-73
2022/11/07 07:23:41;;;;;;;21.70;13.00;;;;;;;9.81;73.58;101699.95;107587;1259;63168;-73
2022/11/07 07:26:15;;;;;;;25.40;12.80;;;;;;;10.00;73.04;101697.70;107691;1263;61584;-74
2022/11/07 07:28:43;;;;;;;20.00;12.30;;;;;;;10.29;72.38;101699.44;107590;1272;71069;-73
2022/11/07 07:31:12;;;;;;;22.70;12.60;;;;;;;10.48;71.34;101694.41;107536;1263;63037;-73
2022/11/07 07:33:42;;;;;;;23.70;11.70;;;;;;;10.68;70.72;101689.95;107609;1263;57632;-72
2022/11/07 07:36:11;;;;;;;22.30;12.40;;;;;;;10.83;69.98;101692.20;107485;1267;60977;-74
2022/11/07 07:38:47;;;;;;;23.00;12.40;;;;;;;10.96;69.37;101693.39;107442;1266;62535;-75
2022/11/07 07:41:17;;;;;;;18.40;11.80;;;;;;;10.88;69.19;101693.13;107542;1267;61361;-73
2022/11/07 07:43:46;;;;;;;23.90;12.50;;;;;;;10.79;69.58;101687.90;107402;1262;69755;-73
2022/11/07 07:46:20;;;;;;;25.80;12.50;;;;;;;10.73;69.82;101694.73;107472;1273;73585;-73
2022/11/07 07:48:49;;;;;;;22.80;13.00;;;;;;;10.81;70.02;101699.46;107552;1262;61494;-73
2022/11/07 07:51:17;;;;;;;21.30;12.60;;;;;;;10.83;69.52;101695.68;107478;1269;60949;-73
2022/11/07 07:53:46;;;;;;;28.80;13.30;;;;;;;10.86;69.33;101693.44;107450;1263;71229;-73
2022/11/07 07:56:16;;;;;;;26.30;12.00;;;;;;;10.82;69.92;101690.71;107617;1265;60659;-74
2022/11/07 07:58:45;;;;;;;21.70;12.10;;;;;;;10.81;69.93;101686.55;107575;1267;68759;-73
2022/11/07 08:01:14;;;;;;;17.60;10.60;;;;;;;10.67;71.15;101678.33;107566;1266;63670;-74
2022/11/07 08:03:43;;;;;;;17.40;10.00;;;;;;;10.79;71.31;101677.29;107597;1273;57064;-73
2022/11/07 08:06:29;;;;;;;18.70;10.70;;;;;;;10.88;71.42;101679.56;107571;1266;57774;-72
2022/11/07 08:08:58;;;;;;;22.20;11.90;;;;;;;11.03;70.81;101680.58;107482;1258;62050;-73
2022/11/07 08:11:27;;;;;;;21.50;12.30;;;;;;;11.17;70.18;101673.35;107654;1261;70286;-72
2022/11/07 08:13:56;;;;;;;20.20;10.60;;;;;;;11.32;69.24;101668.05;107555;1263;70410;-74
2022/11/07 08:16:29;;;;;;;19.80;10.30;;;;;;;11.29;69.59;101670.50;107413;1266;73723;-74
2022/11/07 08:18:58;;;;;;;18.50;10.30;;;;;;;11.40;69.46;101672.30;107406;1261;60803;-75
2022/11/07 08:21:26;;;;;;;15.60;11.30;;;;;;;11.42;69.09;101666.91;107428;1261;57545;-74
2022/11/07 08:23:55;;;;;;;20.10;11.00;;;;;;;11.49;69.02;101667.58;107476;1268;71517;-73
2022/11/07 08:26:24;;;;;;;19.80;11.70;;;;;;;11.53;68.34;101673.04;107573;1272;71721;-73
2022/11/07 08:28:53;;;;;;;23.20;14.00;;;;;;;11.49;67.98;101670.89;107416;1273;59377;-74
2022/11/07 08:31:22;;;;;;;23.60;14.80;;;;;;;11.44;68.16;101671.89;107301;1273;63243;-73
2022/11/07 08:33:51;;;;;;;27.20;13.80;;;;;;;11.53;68.18;101673.04;107449;1262;57604;-74
2022/11/07 08:36:20;;;;;;;26.90;13.50;;;;;;;11.66;67.60;101672.39;107399;1262;60385;-74
2022/11/07 08:38:48;;;;;;;19.10;12.20;;;;;;;11.74;67.63;101666.89;107316;1263;73939;-73
2022/11/07 08:41:17;;;;;;;25.20;14.00;;;;;;;11.78;67.36;101665.27;107581;1263;62181;-73
2022/11/07 08:43:49;;;;;;;31.10;15.00;;;;;;;11.86;67.29;101661.80;107429;1259;70388;-73
2022/11/07 08:46:18;;;;;;;26.70;17.30;;;;;;;11.92;67.36;101660.02;107517;1261;63633;-73
2022/11/07 08:48:47;;;;;;;19.80;10.80;;;;;;;12.02;67.11;101658.38;107659;1264;57607;-75
2022/11/07 08:51:15;;;;;;;21.80;11.40;;;;;;;12.00;66.93;101656.06;107599;1263;60009;-74
2022/11/07 08:53:44;;;;;;;16.70;10.40;;;;;;;12.04;66.92;101656.51;107641;1257;63277;-73
2022/11/07 08:56:13;;;;;;;16.90;10.60;;;;;;;12.27;66.39;101655.68;107379;1261;474189;-72
2022/11/07 08:58:42;;;;;;;20.30;10.20;;;;;;;12.41;65.87;101653.95;107616;1263;70080;-73
2022/11/07 09:01:10;;;;;;;18.50;8.90;;;;;;;12.18;65.95;101652.25;107592;1270;63973;-73
2022/11/07 09:03:39;;;;;;;16.00;9.00;;;;;;;12.17;66.23;101647.95;107660;1263;57891;-75
2022/11/07 09:06:25;;;;;;;18.50;11.40;;;;;;;12.22;66.10;101647.64;107652;1267;60308;-75
2022/11/07 09:08:53;;;;;;;17.10;9.30;;;;;;;12.32;65.93;101641.73;107637;1262;64161;-74
2022/11/07 09:11:22;;;;;;;16.00;9.10;;;;;;;12.41;65.43;101634.66;107699;1263;60826;-75
2022/11/07 09:13:52;;;;;;;14.30;9.50;;;;;;;12.48;65.12;101633.73;107620;1269;59037;-75
2022/11/07 09:16:22;;;;;;;18.40;9.60;;;;;;;12.45;64.97;101633.91;107541;1269;62457;-76
2022/11/07 09:18:51;;;;;;;19.90;9.70;;;;;;;12.45;64.97;101636.14;107596;1262;57058;-77
2022/11/07 09:21:20;;;;;;;16.20;9.20;;;;;;;12.61;64.62;101633.42;107593;1263;60312;-78
2022/11/07 09:23:51;;;;;;;17.70;10.20;;;;;;;12.68;64.50;101635.67;107638;1266;63308;-79
2022/11/07 09:26:20;;;;;;;18.70;9.70;;;;;;;12.59;64.22;101640.13;107605;1267;71399;-78
2022/11/07 09:28:48;;;;;;;13.00;9.00;;;;;;;12.68;64.13;101638.13;107576;1273;69988;-74
2022/11/07 09:31:23;;;;;;;18.30;9.10;;;;;;;12.61;64.23;101634.64;107631;1272;63577;-75
2022/11/07 09:33:52;;;;;;;16.40;9.00;;;;;;;12.65;64.37;101631.05;107561;1262;57304;-74
2022/11/07 09:36:22;;;;;;;17.10;9.50;;;;;;;12.78;63.89;101628.04;107612;1266;60220;-74
2022/11/07 09:38:54;;;;;;;14.30;8.90;;;;;;;12.76;63.73;101622.40;107743;1266;61918;-83
2022/11/07 09:41:54;;;;;;;14.80;9.00;;;;;;;12.71;63.78;101625.34;107802;1262;71247;-72
2022/11/07 09:44:57;;;;;;;13.40;8.60;;;;;;;12.73;63.72;101619.10;107663;1262;69075;-72
2022/11/07 09:47:39;;;;;;;15.00;9.20;;;;;;;12.76;63.64;101618.02;107619;1273;63534;-73
2022/11/07 09:50:22;;;;;;;15.80;8.60;;;;;;;12.66;63.74;101620.66;107497;1276;57193;-73
2022/11/07 09:52:57;;;;;;;26.20;14.50;;;;;;;12.66;63.92;101621.54;107588;1263;60530;-73
2022/11/07 09:55:47;;;;;;;16.70;8.70;;;;;;;12.85;63.53;101614.84;107623;1264;73489;-72
2022/11/07 09:58:33;;;;;;;18.20;9.10;;;;;;;13.06;62.73;101614.95;107637;1264;70389;-72
2022/11/07 10:01:13;;;;;;;16.90;9.10;;;;;;;13.06;62.52;101609.91;107601;1263;70862;-72
2022/11/07 10:03:42;;;;;;;16.20;8.60;;;;;;;12.95;62.76;101607.98;107562;1259;72015;-73
2022/11/07 10:06:39;;;;;;;14.70;9.20;;;;;;;13.15;62.40;101606.83;107507;1275;57140;-73
2022/11/07 10:09:25;;;;;;;16.10;8.40;;;;;;;13.28;61.94;101600.39;107528;1267;60373;-73
2022/11/07 10:12:15;;;;;;;14.40;8.30;;;;;;;13.40;61.67;101594.98;107522;1269;63195;-72
2022/11/07 10:15:21;;;;;;;12.10;8.30;;;;;;;13.62;60.96;101587.45;107782;1260;70435;-75
2022/11/07 10:18:11;;;;;;;13.90;8.60;;;;;;;13.89;60.71;101583.79;107592;1266;69917;-73
2022/11/07 10:21:40;;;;;;;14.70;8.50;;;;;;;13.98;59.47;101575.75;107559;1269;73743;-73
2022/11/07 10:24:49;;;;;;;17.30;8.50;;;;;;;13.81;60.08;101575.45;107383;1272;61644;-75
2022/11/07 10:27:21;;;;;;;11.10;6.80;;;;;;;13.97;59.96;101570.95;107417;1262;57699;-73
2022/11/07 10:29:53;;;;;;;16.20;9.20;;;;;;;14.30;58.82;101562.40;107485;1263;73467;-76
2022/11/07 10:32:50;;;;;;;16.10;8.60;;;;;;;14.45;58.23;101553.73;107530;1264;71409;-74
2022/11/07 10:35:36;;;;;;;15.10;9.50;;;;;;;14.15;58.74;101549.67;107590;1263;61582;-75
2022/11/07 10:38:30;;;;;;;14.20;7.80;;;;;;;14.26;58.45;101550.72;107602;1263;73705;-75
2022/11/07 10:40:58;;;;;;;14.10;8.00;;;;;;;14.48;57.79;101546.98;107455;1270;60628;-74
2022/11/07 10:43:39;;;;;;;12.30;8.10;;;;;;;14.26;58.18;101540.41;107614;1266;57610;-74
2022/11/07 10:46:40;;;;;;;14.20;8.20;;;;;;;14.64;57.22;101533.34;107509;1266;72598;-75
2022/11/07 10:49:23;;;;;;;16.10;7.80;;;;;;;14.55;57.36;101531.21;107736;1264;61937;-74
2022/11/07 10:51:53;;;;;;;;;;;;;;;14.55;57.18;101527.71;107711;1270;59140;-74
2022/11/07 10:54:24;;;;;;;14.00;8.10;;;;;;;14.88;56.66;101527.32;107574;1263;72991;-79
2022/11/07 10:57:21;;;;;;;12.20;7.60;;;;;;;15.00;55.91;101521.95;107614;1263;57388;-76
2022/11/07 10:59:58;;;;;;;14.20;8.10;;;;;;;15.23;55.50;101520.55;107524;1273;57627;-74
2022/11/07 11:02:55;;;;;;;12.10;7.90;;;;;;;15.36;54.70;101517.69;107512;1266;73471;-79
2022/11/07 11:05:26;;;;;;;13.00;7.10;;;;;;;15.46;54.31;101513.65;107671;1272;72821;-76
2022/11/07 11:08:06;;;;;;;12.80;7.60;;;;;;;16.08;53.53;101507.30;107607;1266;70941;-76
2022/11/07 11:10:38;;;;;;;15.80;7.40;;;;;;;15.83;53.37;101501.80;107468;1272;71827;-75
2022/11/07 11:13:24;;;;;;;18.10;8.80;;;;;;;16.11;52.71;101497.73;107483;1263;61565;-77
2022/11/07 11:15:58;;;;;;;18.30;8.40;;;;;;;15.49;53.74;101491.54;107601;1266;57372;-76
2022/11/07 11:18:33;;;;;;;11.90;8.00;;;;;;;15.65;53.51;101492.11;107644;1272;72638;-76
2022/11/07 11:21:04;;;;;;;16.60;11.00;;;;;;;15.78;53.26;101492.80;107722;1262;71760;-76
2022/11/07 11:23:40;;;;;;;17.40;10.50;;;;;;;16.19;52.40;101487.08;107497;1263;60784;-76
2022/11/07 11:26:23;;;;;;;20.10;11.20;;;;;;;16.53;51.07;101484.60;107540;1272;63248;-70
2022/11/07 11:29:04;;;;;;;15.20;10.00;;;;;;;16.78;50.55;101488.90;107511;1269;60486;-71
2022/11/07 11:31:47;;;;;;;17.60;9.90;;;;;;;16.96;49.40;101487.71;107519;1268;60966;-71
2022/11/07 11:34:23;;;;;;;15.00;9.40;;;;;;;16.96;49.06;101484.73;107593;1263;63527;-70
2022/11/07 11:37:19;;;;;;;17.40;9.80;;;;;;;17.14;49.15;101489.71;107685;1267;61341;-72
2022/11/07 11:39:58;;;;;;;19.70;10.30;;;;;;;16.69;49.25;101491.83;107448;1259;59793;-72
2022/11/07 11:42:47;;;;;;;15.10;9.80;;;;;;;16.82;49.07;101487.75;107400;1258;62507;-71